M I D A S
Marine Information and Data Acquisition System
Tripno 2001 of the Zeeleeuw from 2010-12-14 08:10:19 to 2010-12-14 15:06:46
Back to CruiseResearch ActivitiesStationsMapUnderway DataData graphs

EquipmentUnitsComment
TimeDGPSUTC
LatitudeDGPSDM.mWGS84
LongitudeDGPSDM.mWGS84
HeadingGyrodeg 
SOGDGPSknotsSpeed over ground
COGDGPSdegCourse over ground
DepthEcho soundermeters200 kHz
Missing or incorrect values are displayed as -999
Navigation data collected by the RV Zeeleeuw from 2010-12-14 07:22:28 to 2010-12-14 15:12:00
                                                                                    Next 1000 lines
Time Latitude Longitude Heading SOG COG Depth
2010-12-14 07:22:38 51°13.662 2°55.959 124.9 0.1 35 9.3
2010-12-14 07:22:42 51°13.662 2°55.959 123.4 0.1 169 9.3
2010-12-14 07:22:48 51°13.662 2°55.959 122.8 0.1 158 9.3
2010-12-14 07:22:53 51°13.662 2°55.959 122.8 0.1 135 9.3
2010-12-14 07:22:58 51°13.662 2°55.959 123.1 0.1 69 9.3
2010-12-14 07:23:02 51°13.662 2°55.959 123.5 0.1 78 9.3
2010-12-14 07:23:07 51°13.662 2°55.96 124 0.1 57 9.3
2010-12-14 07:23:12 51°13.662 2°55.96 124.3 0.1 210 9.5
2010-12-14 07:23:18 51°13.662 2°55.959 124.6 -999 151 9.3
2010-12-14 07:23:23 51°13.662 2°55.959 124.9 -999 244 -999
2010-12-14 07:23:27 51°13.662 2°55.959 125.1 -999 49 9.5
2010-12-14 07:23:33 51°13.662 2°55.959 125.3 -999 222 -999
2010-12-14 07:23:38 51°13.662 2°55.959 125.3 0.1 6 -999
2010-12-14 07:23:43 51°13.662 2°55.959 125.3 0.1 356 9.3
2010-12-14 07:23:48 51°13.662 2°55.959 125.2 0.1 315 9.3
2010-12-14 07:23:53 51°13.662 2°55.959 125 0.1 337 9.3
2010-12-14 07:23:58 51°13.662 2°55.959 124.7 -999 228 9.2
2010-12-14 07:24:02 51°13.662 2°55.959 124.4 -999 172 9.3
2010-12-14 07:24:08 51°13.662 2°55.959 124.2 -999 155 9.2
2010-12-14 07:24:13 51°13.662 2°55.959 124.2 -999 343 -999
2010-12-14 07:24:18 51°13.662 2°55.959 124.2 -999 184 9.3
2010-12-14 07:24:22 51°13.662 2°55.959 124.2 -999 147 9.3
2010-12-14 07:24:28 51°13.662 2°55.959 124.5 -999 174 -999
2010-12-14 07:24:33 51°13.662 2°55.959 124.6 -999 173 9.3
2010-12-14 07:24:38 51°13.662 2°55.959 124.9 -999 242 9.3
2010-12-14 07:24:43 51°13.662 2°55.959 125 -999 150 9.3
2010-12-14 07:24:48 51°13.662 2°55.959 125.2 -999 1 -999
2010-12-14 07:24:54 51°13.662 2°55.959 125.3 -999 159 -999
2010-12-14 07:24:58 51°13.662 2°55.959 125.4 -999 23 -999
2010-12-14 07:25:03 51°13.662 2°55.959 125.4 -999 321 9.5
2010-12-14 07:25:09 51°13.662 2°55.959 125.4 -999 325 -999
2010-12-14 07:25:13 51°13.662 2°55.959 125.4 -999 238 -999
2010-12-14 07:25:18 51°13.662 2°55.959 125.3 -999 251 9.3
2010-12-14 07:25:24 51°13.662 2°55.959 125.2 -999 256 -999
2010-12-14 07:25:29 51°13.662 2°55.959 125.1 -999 194 -999
2010-12-14 07:25:33 51°13.662 2°55.959 125 -999 174 9.3
2010-12-14 07:25:38 51°13.662 2°55.959 125 -999 223 9.4
2010-12-14 07:25:43 51°13.662 2°55.96 125 -999 63 -999
2010-12-14 07:25:49 51°13.662 2°55.96 125.1 -999 2 -999
2010-12-14 07:25:54 51°13.662 2°55.96 125.1 -999 71 9.4
2010-12-14 07:25:58 51°13.662 2°55.96 125.1 -999 207 -999
2010-12-14 07:26:03 51°13.662 2°55.96 125.1 -999 178 9.3
2010-12-14 07:26:09 51°13.662 2°55.96 125.2 -999 189 -999
2010-12-14 07:26:13 51°13.662 2°55.96 125.2 -999 243 9.5
2010-12-14 07:26:18 51°13.662 2°55.96 125.2 -999 262 9.3
2010-12-14 07:26:23 51°13.662 2°55.96 125.2 -999 7 -999
2010-12-14 07:26:29 51°13.662 2°55.96 125.1 0.1 3 9.3
2010-12-14 07:26:34 51°13.662 2°55.96 125 -999 350 9.3
2010-12-14 07:26:38 51°13.662 2°55.96 124.9 -999 318 9.3
2010-12-14 07:26:43 51°13.662 2°55.96 124.9 -999 281 -999
2010-12-14 07:26:48 51°13.662 2°55.96 124.9 -999 9 -999
2010-12-14 07:26:53 51°13.662 2°55.96 124.8 -999 273 9.3
2010-12-14 07:26:58 51°13.662 2°55.96 124.7 -999 324 9.2
2010-12-14 07:27:03 51°13.662 2°55.96 124.6 -999 190 9.3
2010-12-14 07:27:08 51°13.662 2°55.96 124.4 -999 30 9.2
2010-12-14 07:27:13 51°13.662 2°55.96 124.3 -999 336 9.3
2010-12-14 07:27:18 51°13.662 2°55.96 124.3 -999 64 9.3
2010-12-14 07:27:23 51°13.662 2°55.96 124.3 -999 126 -999
2010-12-14 07:27:28 51°13.662 2°55.96 124.3 -999 -999 9.3
2010-12-14 07:27:33 51°13.662 2°55.96 124.6 -999 193 9.3
2010-12-14 07:27:38 51°13.662 2°55.96 124.6 -999 98 -999
2010-12-14 07:27:43 51°13.662 2°55.96 124.6 -999 198 9.4
2010-12-14 07:27:49 51°13.662 2°55.96 124.9 -999 21 -999
2010-12-14 07:27:53 51°13.662 2°55.96 125 -999 297 -999
2010-12-14 07:27:58 51°13.662 2°55.96 125.1 -999 355 -999
2010-12-14 07:28:03 51°13.662 2°55.96 124.9 -999 340 9.2
2010-12-14 07:28:08 51°13.662 2°55.96 124.7 0.1 353 9.2
2010-12-14 07:28:13 51°13.662 2°55.96 124.4 -999 344 9.2
2010-12-14 07:28:18 51°13.662 2°55.96 124.1 -999 3 9.2
2010-12-14 07:28:23 51°13.662 2°55.96 123.8 -999 110 -999
2010-12-14 07:28:28 51°13.662 2°55.96 123.7 0.1 146 9.3
2010-12-14 07:28:33 51°13.662 2°55.959 123.9 0.1 137 9.3
2010-12-14 07:28:38 51°13.661 2°55.961 124.4 0.1 135 9.3
2010-12-14 07:28:43 51°13.662 2°55.961 125.3 -999 2 9.3
2010-12-14 07:28:48 51°13.662 2°55.961 126.6 -999 255 9.2
2010-12-14 07:28:54 51°13.662 2°55.961 126.9 0.1 175 -999
2010-12-14 07:28:58 51°13.662 2°55.961 126.9 -999 28 9.3
2010-12-14 07:29:03 51°13.662 2°55.961 126.9 -999 302 9.3
2010-12-14 07:29:08 51°13.662 2°55.961 126.8 -999 307 9.2
2010-12-14 07:29:13 51°13.662 2°55.961 126.8 -999 313 9.2
2010-12-14 07:29:18 51°13.662 2°55.961 126.9 -999 352 9.2
2010-12-14 07:29:22 51°13.662 2°55.961 126.9 -999 21 9.2
2010-12-14 07:29:27 51°13.662 2°55.96 126.9 -999 30 9.2
2010-12-14 07:29:33 51°13.662 2°55.96 126.9 -999 277 -999
2010-12-14 07:29:38 51°13.662 2°55.96 126.9 -999 256 9.2
2010-12-14 07:29:44 51°13.662 2°55.96 126.9 -999 53 -999
2010-12-14 07:29:48 51°13.662 2°55.96 126.9 -999 54 9.2
2010-12-14 07:29:54 51°13.662 2°55.96 126.9 0.1 16 -999
2010-12-14 07:29:58 51°13.662 2°55.96 126.9 -999 29 -999
2010-12-14 07:30:03 51°13.662 2°55.96 126.9 -999 312 -999
2010-12-14 07:30:09 51°13.662 2°55.96 126.9 -999 245 9.2
2010-12-14 07:30:13 51°13.662 2°55.96 126.9 0.1 213 9.2
2010-12-14 07:30:18 51°13.662 2°55.96 126.9 -999 200 -999
2010-12-14 07:30:24 51°13.662 2°55.96 126.9 -999 312 -999
2010-12-14 07:30:29 51°13.662 2°55.96 126.9 0.1 54 -999
2010-12-14 07:30:34 51°13.662 2°55.96 126.9 -999 65 -999
2010-12-14 07:30:38 51°13.662 2°55.96 126.9 -999 51 -999
2010-12-14 07:30:43 51°13.662 2°55.96 126.9 -999 55 9.2
2010-12-14 07:30:49 51°13.662 2°55.96 126.9 -999 52 -999
2010-12-14 07:30:54 51°13.662 2°55.96 126.9 -999 45 -999
2010-12-14 07:30:58 51°13.662 2°55.96 126.9 -999 49 -999
2010-12-14 07:31:03 51°13.662 2°55.96 126.9 0.1 215 9.2
2010-12-14 07:31:08 51°13.661 2°55.96 126.9 0.1 208 9.2
2010-12-14 07:31:14 51°13.661 2°55.96 126.9 -999 201 -999
2010-12-14 07:31:18 51°13.661 2°55.96 126.9 -999 234 -999
2010-12-14 07:31:23 51°13.661 2°55.96 126.9 -999 265 9.2
2010-12-14 07:31:28 51°13.662 2°55.96 126.9 -999 230 9.2
2010-12-14 07:31:33 51°13.662 2°55.96 126.9 -999 226 9.2
2010-12-14 07:31:38 51°13.662 2°55.96 126.9 -999 59 -999
2010-12-14 07:31:43 51°13.662 2°55.96 127 -999 36 9.2
2010-12-14 07:31:48 51°13.662 2°55.96 127 -999 285 -999
2010-12-14 07:31:53 51°13.662 2°55.96 127 0.1 252 9.2
2010-12-14 07:31:58 51°13.662 2°55.96 127 -999 222 -999
2010-12-14 07:32:03 51°13.662 2°55.96 127 -999 96 9.2
2010-12-14 07:32:08 51°13.661 2°55.96 127 -999 83 9.2
2010-12-14 07:32:13 51°13.661 2°55.96 126.8 -999 92 9.2
2010-12-14 07:32:18 51°13.661 2°55.961 126.8 0.1 92 9.2
2010-12-14 07:32:22 51°13.662 2°55.961 126.7 -999 105 9.2
2010-12-14 07:32:27 51°13.661 2°55.96 126.7 -999 63 9.2
2010-12-14 07:32:32 51°13.661 2°55.96 126.7 -999 52 9.2
2010-12-14 07:32:37 51°13.661 2°55.96 126.7 -999 78 9.2
2010-12-14 07:32:42 51°13.661 2°55.96 126.7 -999 99 9.2
2010-12-14 07:32:47 51°13.661 2°55.96 126.7 -999 100 9.2
2010-12-14 07:32:52 51°13.661 2°55.96 126.7 -999 215 9.2
2010-12-14 07:32:56 51°13.661 2°55.96 126.7 -999 209 9.2
2010-12-14 07:33:01 51°13.661 2°55.96 126.7 -999 247 9.2
2010-12-14 07:33:06 51°13.661 2°55.96 126.7 -999 289 9.2
2010-12-14 07:33:11 51°13.661 2°55.96 126.7 -999 259 9.2
2010-12-14 07:33:16 51°13.661 2°55.96 126.7 -999 278 9.2
2010-12-14 07:33:21 51°13.661 2°55.96 126.7 -999 171 9.2
2010-12-14 07:33:26 51°13.661 2°55.96 126.7 -999 237 9.2
2010-12-14 07:33:30 51°13.661 2°55.96 126.7 -999 346 -999
2010-12-14 07:33:35 51°13.661 2°55.96 126.7 -999 314 9.2
2010-12-14 07:33:40 51°13.661 2°55.96 126.7 -999 215 9.2
2010-12-14 07:33:45 51°13.661 2°55.96 126.7 -999 151 9.2
2010-12-14 07:33:50 51°13.661 2°55.96 126.7 -999 179 9.2
2010-12-14 07:33:54 51°13.661 2°55.96 126.7 -999 149 9.2
2010-12-14 07:34:00 51°13.661 2°55.96 126.7 -999 48 9.2
2010-12-14 07:34:05 51°13.66 2°55.96 126.7 -999 2 9.2
2010-12-14 07:34:10 51°13.66 2°55.96 126.7 -999 106 9.2
2010-12-14 07:34:15 51°13.66 2°55.96 126.7 -999 187 9.2
2010-12-14 07:34:20 51°13.66 2°55.96 126.7 -999 251 9.2
2010-12-14 07:34:25 51°13.66 2°55.96 126.7 -999 149 9.2
2010-12-14 07:34:30 51°13.66 2°55.96 126.7 -999 140 9.2
2010-12-14 07:34:34 51°13.66 2°55.96 126.7 -999 315 9.2
2010-12-14 07:34:40 51°13.66 2°55.96 126.7 -999 10 9.2
2010-12-14 07:34:45 51°13.66 2°55.96 126.7 -999 26 9.2
2010-12-14 07:34:50 51°13.66 2°55.96 126.7 -999 203 9.2
2010-12-14 07:34:54 51°13.661 2°55.96 126.7 -999 233 9.2
2010-12-14 07:34:59 51°13.661 2°55.96 126.7 -999 117 9.1
2010-12-14 07:35:05 51°13.661 2°55.96 126.7 -999 199 9.2
2010-12-14 07:35:10 51°13.661 2°55.96 126.7 -999 85 9.2
2010-12-14 07:35:15 51°13.661 2°55.96 126.7 -999 79 9.2
2010-12-14 07:35:19 51°13.661 2°55.96 126.7 -999 152 9.2
2010-12-14 07:35:25 51°13.661 2°55.96 126.7 -999 32 9.2
2010-12-14 07:35:30 51°13.661 2°55.96 126.7 -999 45 9.2
2010-12-14 07:35:35 51°13.661 2°55.96 126.7 -999 85 9.2
2010-12-14 07:35:40 51°13.661 2°55.96 126.7 -999 91 9.2
2010-12-14 07:35:45 51°13.661 2°55.96 126.7 -999 221 9.2
2010-12-14 07:35:50 51°13.661 2°55.96 126.7 -999 230 9.2
2010-12-14 07:35:55 51°13.661 2°55.96 126.7 -999 187 9.2
2010-12-14 07:35:59 51°13.661 2°55.96 126.7 -999 197 9.2
2010-12-14 07:36:05 51°13.661 2°55.96 126.7 -999 160 9.2
2010-12-14 07:36:10 51°13.661 2°55.96 126.7 -999 170 9.2
2010-12-14 07:36:15 51°13.661 2°55.96 126.7 -999 286 9.2
2010-12-14 07:36:20 51°13.661 2°55.96 126.7 -999 356 -999
2010-12-14 07:36:25 51°13.661 2°55.96 126.7 -999 236 9.1
2010-12-14 07:36:30 51°13.661 2°55.96 126.7 -999 171 9.1
2010-12-14 07:36:34 51°13.661 2°55.96 126.7 -999 47 9.1
2010-12-14 07:36:40 51°13.661 2°55.96 126.7 -999 90 9.1
2010-12-14 07:36:45 51°13.661 2°55.96 126.7 -999 249 9.1
2010-12-14 07:36:50 51°13.661 2°55.96 126.7 -999 283 9.2
2010-12-14 07:36:55 51°13.661 2°55.96 126.7 -999 128 9.1
2010-12-14 07:37:00 51°13.661 2°55.96 126.7 -999 358 9.1
2010-12-14 07:37:05 51°13.661 2°55.96 126.7 -999 22 9.2
2010-12-14 07:37:10 51°13.661 2°55.96 126.7 -999 233 9.2
2010-12-14 07:37:14 51°13.661 2°55.96 126.7 -999 220 9.2
2010-12-14 07:37:20 51°13.661 2°55.96 126.7 -999 248 9.1
2010-12-14 07:37:25 51°13.661 2°55.96 126.7 -999 283 9.1
2010-12-14 07:37:30 51°13.661 2°55.96 126.7 -999 249 9.2
2010-12-14 07:37:35 51°13.661 2°55.96 126.7 -999 91 9.2
2010-12-14 07:37:39 51°13.661 2°55.96 126.7 -999 65 9.2
2010-12-14 07:37:45 51°13.661 2°55.96 126.7 -999 342 9.2
2010-12-14 07:37:50 51°13.661 2°55.96 126.7 -999 264 9.2
2010-12-14 07:37:54 51°13.661 2°55.96 126.7 -999 232 9.1
2010-12-14 07:38:00 51°13.661 2°55.96 126.7 -999 244 9.2
2010-12-14 07:38:05 51°13.661 2°55.96 126.7 -999 229 9.1
2010-12-14 07:38:10 51°13.661 2°55.96 126.7 -999 294 9.2
2010-12-14 07:38:15 51°13.661 2°55.96 126.7 -999 268 9.1
2010-12-14 07:38:19 51°13.661 2°55.96 126.7 -999 191 9.2
2010-12-14 07:38:25 51°13.661 2°55.96 126.7 -999 243 9.1
2010-12-14 07:38:30 51°13.661 2°55.96 126.7 -999 42 9.1
2010-12-14 07:38:35 51°13.661 2°55.96 126.7 -999 53 9.1
2010-12-14 07:38:40 51°13.661 2°55.96 126.7 -999 119 9.1
2010-12-14 07:38:45 51°13.661 2°55.96 126.7 -999 158 9.2
2010-12-14 07:38:50 51°13.661 2°55.96 126.7 -999 198 9.1
2010-12-14 07:38:55 51°13.661 2°55.96 126.7 -999 217 9.1
2010-12-14 07:39:00 51°13.661 2°55.96 126.6 -999 223 9.1
2010-12-14 07:39:05 51°13.661 2°55.96 126.6 -999 100 9.1
2010-12-14 07:39:10 51°13.661 2°55.96 126.6 -999 86 9.1
2010-12-14 07:39:14 51°13.661 2°55.96 126.6 -999 110 9.1
2010-12-14 07:39:20 51°13.661 2°55.96 126.6 -999 137 9.1
2010-12-14 07:39:25 51°13.661 2°55.96 126.6 -999 356 9.1
2010-12-14 07:39:30 51°13.661 2°55.96 126.6 -999 4 9.1
2010-12-14 07:39:34 51°13.661 2°55.96 126.6 -999 58 9.1
2010-12-14 07:39:40 51°13.661 2°55.96 126.6 -999 208 9.1
2010-12-14 07:39:45 51°13.661 2°55.96 126.6 -999 251 9.2
2010-12-14 07:39:50 51°13.661 2°55.96 126.6 -999 242 9.1
2010-12-14 07:39:55 51°13.661 2°55.96 126.6 -999 197 9.1
2010-12-14 07:39:59 51°13.661 2°55.96 126.6 -999 188 9.1
2010-12-14 07:40:05 51°13.661 2°55.96 126.6 -999 218 9.1
2010-12-14 07:40:10 51°13.661 2°55.96 126.6 -999 220 9.1
2010-12-14 07:40:15 51°13.661 2°55.96 126.6 -999 219 9.1
2010-12-14 07:40:20 51°13.661 2°55.961 126.6 -999 182 9.1
2010-12-14 07:40:25 51°13.661 2°55.961 126.6 -999 94 9.1
2010-12-14 07:40:30 51°13.661 2°55.961 126.6 -999 68 9.1
2010-12-14 07:40:34 51°13.661 2°55.961 126.6 -999 53 9.1
2010-12-14 07:40:40 51°13.661 2°55.961 126.6 -999 260 9.1
2010-12-14 07:40:45 51°13.661 2°55.961 126.6 -999 242 9.1
2010-12-14 07:40:50 51°13.661 2°55.961 126.6 -999 71 9.1
2010-12-14 07:40:55 51°13.661 2°55.961 126.6 -999 218 9.1
2010-12-14 07:41:00 51°13.661 2°55.961 126.6 -999 97 9.2
2010-12-14 07:41:05 51°13.66 2°55.96 126.6 -999 35 9.1
2010-12-14 07:41:10 51°13.66 2°55.96 126.6 -999 206 9.1
2010-12-14 07:41:14 51°13.66 2°55.96 126.6 -999 222 9.1
2010-12-14 07:41:20 51°13.66 2°55.959 126.6 -999 153 9.1
2010-12-14 07:41:25 51°13.66 2°55.959 126.6 -999 232 9.1
2010-12-14 07:41:30 51°13.66 2°55.959 126.6 -999 285 9.1
2010-12-14 07:41:34 51°13.66 2°55.959 126.6 -999 346 9.1
2010-12-14 07:41:40 51°13.66 2°55.959 126.6 -999 137 9.1
2010-12-14 07:41:45 51°13.659 2°55.959 126.6 -999 300 9.1
2010-12-14 07:41:50 51°13.659 2°55.959 126.6 -999 52 9.1
2010-12-14 07:41:55 51°13.659 2°55.959 126.6 -999 156 9.1
2010-12-14 07:41:59 51°13.659 2°55.959 126.6 -999 34 9.1
2010-12-14 07:42:05 51°13.659 2°55.959 126.6 -999 306 9.1
2010-12-14 07:42:10 51°13.659 2°55.959 126.6 -999 294 9.2
2010-12-14 07:42:15 51°13.659 2°55.959 126.6 -999 244 9.2
2010-12-14 07:42:19 51°13.659 2°55.959 126.6 -999 288 9.2
2010-12-14 07:42:25 51°13.659 2°55.96 126.6 -999 198 9.2
2010-12-14 07:42:30 51°13.66 2°55.96 126.6 -999 199 9.2
2010-12-14 07:42:35 51°13.66 2°55.96 126.6 -999 220 9.1
2010-12-14 07:42:40 51°13.66 2°55.96 126.6 -999 256 9.2
2010-12-14 07:42:45 51°13.66 2°55.96 126.6 -999 70 9.1
2010-12-14 07:42:50 51°13.66 2°55.96 126.6 -999 155 9.1
2010-12-14 07:42:55 51°13.66 2°55.96 126.6 -999 202 9.1
2010-12-14 07:43:00 51°13.66 2°55.96 126.6 -999 162 9.1
2010-12-14 07:43:05 51°13.66 2°55.96 126.6 -999 62 9.1
2010-12-14 07:43:10 51°13.66 2°55.96 126.6 -999 48 9.1
2010-12-14 07:43:15 51°13.66 2°55.96 126.6 -999 50 9.1
2010-12-14 07:43:20 51°13.66 2°55.96 126.6 -999 164 9.1
2010-12-14 07:43:25 51°13.66 2°55.96 126.6 -999 162 9.1
2010-12-14 07:43:30 51°13.66 2°55.96 126.6 -999 203 9.1
2010-12-14 07:43:34 51°13.66 2°55.96 126.6 -999 171 9.1
2010-12-14 07:43:40 51°13.66 2°55.96 126.6 -999 289 9.1
2010-12-14 07:43:45 51°13.66 2°55.96 126.6 -999 299 9.1
2010-12-14 07:43:50 51°13.66 2°55.96 126.6 -999 133 9.1
2010-12-14 07:43:54 51°13.66 2°55.96 126.6 -999 208 9.1
2010-12-14 07:43:59 51°13.66 2°55.96 126.6 -999 322 9.1
2010-12-14 07:44:05 51°13.66 2°55.961 126.6 -999 93 9.1
2010-12-14 07:44:10 51°13.66 2°55.961 126.6 -999 347 9.1
2010-12-14 07:44:15 51°13.66 2°55.96 126.6 -999 280 9.1
2010-12-14 07:44:20 51°13.66 2°55.96 126.6 -999 213 9.1
2010-12-14 07:44:25 51°13.66 2°55.96 126.6 -999 145 9.1
2010-12-14 07:44:30 51°13.66 2°55.96 126.6 -999 149 9.1
2010-12-14 07:44:34 51°13.66 2°55.96 126.6 -999 315 9.1
2010-12-14 07:44:40 51°13.661 2°55.96 126.6 -999 309 9.1
2010-12-14 07:44:45 51°13.661 2°55.96 126.6 -999 2 9.1
2010-12-14 07:44:50 51°13.661 2°55.96 126.6 -999 263 9.1
2010-12-14 07:44:55 51°13.661 2°55.96 126.6 -999 58 9.1
2010-12-14 07:45:00 51°13.661 2°55.96 126.6 -999 295 9.1
2010-12-14 07:45:05 51°13.661 2°55.96 126.6 -999 325 9.1
2010-12-14 07:45:10 51°13.661 2°55.96 126.6 -999 22 9.1
2010-12-14 07:45:15 51°13.661 2°55.96 126.6 -999 266 9.1
2010-12-14 07:45:20 51°13.661 2°55.96 126.6 -999 281 9.1
2010-12-14 07:45:25 51°13.661 2°55.96 126.6 -999 228 9.1
2010-12-14 07:45:30 51°13.661 2°55.96 126.6 -999 324 9.1
2010-12-14 07:45:34 51°13.661 2°55.96 126.6 -999 331 9.1
2010-12-14 07:45:40 51°13.661 2°55.96 126.6 -999 271 9.1
2010-12-14 07:45:45 51°13.661 2°55.96 126.6 -999 305 9.1
2010-12-14 07:45:50 51°13.661 2°55.96 126.6 -999 342 9.1
2010-12-14 07:45:55 51°13.661 2°55.96 126.6 -999 333 9.1
2010-12-14 07:46:00 51°13.661 2°55.96 126.6 -999 7 9.1
2010-12-14 07:46:05 51°13.661 2°55.96 126.6 -999 197 9.1
2010-12-14 07:46:10 51°13.661 2°55.96 126.6 -999 124 9.1
2010-12-14 07:46:14 51°13.661 2°55.96 126.6 -999 154 9.1
2010-12-14 07:46:19 51°13.661 2°55.96 126.6 -999 80 9.1
2010-12-14 07:46:25 51°13.662 2°55.96 126.6 -999 18 9.1
2010-12-14 07:46:30 51°13.662 2°55.96 126.6 -999 180 9.1
2010-12-14 07:46:35 51°13.662 2°55.96 126.6 -999 240 9.1
2010-12-14 07:46:39 51°13.662 2°55.96 126.6 -999 346 9.1
2010-12-14 07:46:45 51°13.662 2°55.96 126.6 -999 352 9.1
2010-12-14 07:46:50 51°13.662 2°55.96 126.6 -999 357 9.1
2010-12-14 07:46:55 51°13.662 2°55.96 126.6 -999 273 9
2010-12-14 07:47:00 51°13.662 2°55.96 126.6 -999 51 9.1
2010-12-14 07:47:05 51°13.662 2°55.96 126.6 -999 77 9.1
2010-12-14 07:47:10 51°13.662 2°55.96 126.6 -999 124 9.1
2010-12-14 07:47:15 51°13.662 2°55.96 126.6 -999 322 9.1
2010-12-14 07:47:19 51°13.662 2°55.96 126.6 -999 241 9
2010-12-14 07:47:25 51°13.662 2°55.961 126.6 -999 143 9
2010-12-14 07:47:30 51°13.662 2°55.961 126.6 -999 250 9.1
2010-12-14 07:47:35 51°13.662 2°55.961 126.6 -999 110 9.1
2010-12-14 07:47:40 51°13.662 2°55.961 126.6 -999 239 9.1
2010-12-14 07:47:45 51°13.662 2°55.961 126.6 -999 20 9.1
2010-12-14 07:47:50 51°13.662 2°55.961 126.6 -999 124 9
2010-12-14 07:47:55 51°13.662 2°55.961 126.6 -999 267 9
2010-12-14 07:48:00 51°13.662 2°55.961 126.6 -999 111 9.1
2010-12-14 07:48:05 51°13.663 2°55.961 126.6 -999 207 9.1
2010-12-14 07:48:10 51°13.663 2°55.961 126.6 -999 257 9.1
2010-12-14 07:48:14 51°13.663 2°55.961 126.6 -999 265 9
2010-12-14 07:48:19 51°13.663 2°55.961 126.6 -999 350 9
2010-12-14 07:48:25 51°13.663 2°55.961 126.6 -999 317 9
2010-12-14 07:48:30 51°13.663 2°55.961 126.6 -999 347 9
2010-12-14 07:48:35 51°13.663 2°55.961 126.6 -999 71 9
2010-12-14 07:48:39 51°13.663 2°55.961 126.6 -999 341 9.1
2010-12-14 07:48:45 51°13.663 2°55.961 126.6 -999 37 9
2010-12-14 07:48:50 51°13.663 2°55.961 126.6 -999 157 9
2010-12-14 07:48:55 51°13.663 2°55.961 126.6 -999 149 9
2010-12-14 07:49:00 51°13.663 2°55.961 126.6 -999 25 9.1
2010-12-14 07:49:05 51°13.663 2°55.961 126.6 -999 270 9.1
2010-12-14 07:49:10 51°13.663 2°55.961 126.6 -999 179 9.1
2010-12-14 07:49:15 51°13.663 2°55.961 126.6 -999 212 9
2010-12-14 07:49:20 51°13.663 2°55.961 126.6 -999 285 9.1
2010-12-14 07:49:25 51°13.663 2°55.961 126.6 -999 208 9.1
2010-12-14 07:49:30 51°13.663 2°55.961 126.6 -999 238 9.1
2010-12-14 07:49:35 51°13.663 2°55.961 126.6 -999 198 9.1
2010-12-14 07:49:40 51°13.663 2°55.961 126.6 -999 218 9.1
2010-12-14 07:49:45 51°13.663 2°55.961 126.6 -999 238 9
2010-12-14 07:49:50 51°13.663 2°55.961 126.6 -999 345 9
2010-12-14 07:49:55 51°13.663 2°55.961 126.6 -999 197 9.1
2010-12-14 07:50:00 51°13.663 2°55.961 126.6 -999 10 9.1
2010-12-14 07:50:05 51°13.663 2°55.961 126.6 -999 201 9.1
2010-12-14 07:50:10 51°13.663 2°55.961 126.6 -999 198 9.1
2010-12-14 07:50:14 51°13.663 2°55.961 126.6 -999 196 9.1
2010-12-14 07:50:20 51°13.663 2°55.961 126.6 -999 182 9.1
2010-12-14 07:50:25 51°13.663 2°55.961 126.6 -999 29 9.1
2010-12-14 07:50:30 51°13.663 2°55.961 126.6 -999 259 9.1
2010-12-14 07:50:35 51°13.663 2°55.961 126.6 -999 258 9.1
2010-12-14 07:50:39 51°13.663 2°55.961 126.6 -999 27 9
2010-12-14 07:50:45 51°13.663 2°55.961 126.6 -999 70 9
2010-12-14 07:50:50 51°13.663 2°55.961 126.6 -999 20 9
2010-12-14 07:50:55 51°13.663 2°55.961 126.6 -999 66 9.1
2010-12-14 07:51:00 51°13.663 2°55.961 126.6 -999 83 9
2010-12-14 07:51:05 51°13.663 2°55.961 126.6 -999 62 9
2010-12-14 07:51:10 51°13.663 2°55.961 126.6 -999 50 9
2010-12-14 07:51:15 51°13.663 2°55.961 126.6 -999 246 9
2010-12-14 07:51:20 51°13.663 2°55.961 126.6 -999 243 9
2010-12-14 07:51:25 51°13.663 2°55.961 126.6 -999 340 9
2010-12-14 07:51:30 51°13.663 2°55.961 126.6 -999 276 9
2010-12-14 07:51:35 51°13.663 2°55.961 126.6 -999 222 9
2010-12-14 07:51:40 51°13.663 2°55.961 126.6 -999 89 9
2010-12-14 07:51:45 51°13.663 2°55.961 126.6 -999 288 9
2010-12-14 07:51:50 51°13.663 2°55.961 126.6 -999 232 9
2010-12-14 07:51:55 51°13.663 2°55.961 126.6 -999 330 9
2010-12-14 07:52:00 51°13.663 2°55.961 126.6 -999 27 9
2010-12-14 07:52:05 51°13.663 2°55.961 126.6 -999 178 9
2010-12-14 07:52:10 51°13.663 2°55.96 126.6 -999 198 9
2010-12-14 07:52:14 51°13.663 2°55.96 126.6 -999 151 9
2010-12-14 07:52:20 51°13.663 2°55.96 126.6 -999 202 9
2010-12-14 07:52:25 51°13.663 2°55.96 126.6 -999 192 9
2010-12-14 07:52:30 51°13.663 2°55.96 126.6 -999 207 9
2010-12-14 07:52:35 51°13.663 2°55.96 126.6 -999 143 9
2010-12-14 07:52:39 51°13.663 2°55.96 126.6 -999 187 9
2010-12-14 07:52:45 51°13.663 2°55.96 126.6 -999 93 9
2010-12-14 07:52:50 51°13.663 2°55.96 126.6 -999 170 9
2010-12-14 07:52:55 51°13.663 2°55.96 126.5 -999 275 9.3
2010-12-14 07:53:00 51°13.663 2°55.96 126.4 -999 304 -999
2010-12-14 07:53:06 51°13.663 2°55.96 126.4 -999 142 -999
2010-12-14 07:53:11 51°13.663 2°55.96 126.4 -999 206 9.1
2010-12-14 07:53:17 51°13.663 2°55.96 126.4 -999 193 -999
2010-12-14 07:53:22 51°13.662 2°55.96 126.4 -999 207 -999
2010-12-14 07:53:28 51°13.662 2°55.96 126.4 -999 258 -999
2010-12-14 07:53:33 51°13.662 2°55.96 126.4 -999 195 9
2010-12-14 07:53:38 51°13.662 2°55.96 126.4 -999 231 9
2010-12-14 07:53:43 51°13.662 2°55.96 126.4 -999 206 -999
2010-12-14 07:53:48 51°13.662 2°55.96 126.4 -999 249 -999
2010-12-14 07:53:53 51°13.662 2°55.96 126.4 -999 274 -999
2010-12-14 07:53:58 51°13.662 2°55.96 126.4 -999 267 9
2010-12-14 07:54:03 51°13.662 2°55.96 126.4 -999 272 9
2010-12-14 07:54:08 51°13.662 2°55.96 126.5 -999 258 9
2010-12-14 07:54:13 51°13.662 2°55.959 126.8 0.1 242 9
2010-12-14 07:54:18 51°13.662 2°55.96 127.2 -999 243 9.7
2010-12-14 07:54:23 51°13.662 2°55.96 127.5 -999 233 9
2010-12-14 07:54:28 51°13.662 2°55.96 127.7 -999 21 9
2010-12-14 07:54:33 51°13.662 2°55.96 127.8 -999 108 9
2010-12-14 07:54:38 51°13.662 2°55.96 127.8 -999 176 9.4
2010-12-14 07:54:43 51°13.662 2°55.96 127.8 -999 114 -999
2010-12-14 07:54:49 51°13.662 2°55.96 127.8 -999 71 -999
2010-12-14 07:54:53 51°13.662 2°55.96 127.8 0.1 93 9
2010-12-14 07:54:58 51°13.662 2°55.96 127.5 0.1 85 9
2010-12-14 07:55:03 51°13.662 2°55.961 127 0.1 97 9
2010-12-14 07:55:08 51°13.662 2°55.961 125.8 0.1 105 9
2010-12-14 07:55:13 51°13.662 2°55.961 124.2 0.1 181 8.9
2010-12-14 07:55:18 51°13.662 2°55.961 122.4 -999 203 9
2010-12-14 07:55:22 51°13.662 2°55.961 120.9 0.1 194 9
2010-12-14 07:55:27 51°13.661 2°55.961 119.7 0.1 195 -999
2010-12-14 07:55:32 51°13.661 2°55.961 118.4 0.1 202 9
2010-12-14 07:55:38 51°13.661 2°55.961 117.2 0.1 193 9
2010-12-14 07:55:42 51°13.661 2°55.96 116 0.1 199 9
2010-12-14 07:55:47 51°13.661 2°55.96 114.8 0.1 190 9.3
2010-12-14 07:55:52 51°13.661 2°55.96 113.6 0.1 190 9.3
2010-12-14 07:55:57 51°13.66 2°55.96 112.6 0.1 195 9.1
2010-12-14 07:56:02 51°13.66 2°55.96 111.4 0.1 196 9.1
2010-12-14 07:56:07 51°13.66 2°55.96 110.1 0.1 202 -999
2010-12-14 07:56:12 51°13.66 2°55.961 108.9 0.1 210 9.1
2010-12-14 07:56:17 51°13.66 2°55.96 107.6 0.1 243 9.4
2010-12-14 07:56:22 51°13.66 2°55.96 106.6 0.3 271 9.2
2010-12-14 07:56:26 51°13.661 2°55.958 105.6 0.9 286 9.1
2010-12-14 07:56:31 51°13.661 2°55.955 105.1 1.5 283 9.1
2010-12-14 07:56:36 51°13.662 2°55.951 104.9 2.2 287 -999
2010-12-14 07:56:42 51°13.663 2°55.944 104.9 2.7 287 8.8
2010-12-14 07:56:47 51°13.664 2°55.937 105.4 3.3 287 7.6
2010-12-14 07:56:53 51°13.666 2°55.928 105.9 3.6 288 -999
2010-12-14 07:56:58 51°13.668 2°55.92 106 4 287 -999
2010-12-14 07:57:04 51°13.67 2°55.909 105.8 4.3 286 -999
2010-12-14 07:57:09 51°13.672 2°55.899 105.2 4.6 287 -999
2010-12-14 07:57:14 51°13.674 2°55.889 105 4.9 286 -999
2010-12-14 07:57:18 51°13.675 2°55.88 105 5.1 287 -999
2010-12-14 07:57:23 51°13.677 2°55.869 105.2 5.2 287 -999
2010-12-14 07:57:29 51°13.68 2°55.856 105.1 5 287 -999
2010-12-14 07:57:34 51°13.682 2°55.846 104.7 4.8 286 -999
2010-12-14 07:57:38 51°13.683 2°55.838 104.4 4.7 286 -999
2010-12-14 07:57:43 51°13.685 2°55.828 103.9 4.6 285 -999
2010-12-14 07:57:49 51°13.687 2°55.816 103.2 4.5 285 -999
2010-12-14 07:57:54 51°13.688 2°55.807 102.5 4.3 284 -999
2010-12-14 07:57:58 51°13.689 2°55.8 101.7 4.3 283 -999
2010-12-14 07:58:03 51°13.69 2°55.79 100.7 4.2 283 -999
2010-12-14 07:58:08 51°13.691 2°55.781 99.9 4.2 282 14.3
2010-12-14 07:58:14 51°13.693 2°55.771 99.1 4.1 281 -999
2010-12-14 07:58:18 51°13.693 2°55.764 98.3 3.9 280 -999
2010-12-14 07:58:23 51°13.694 2°55.756 97.7 3.7 281 -999
2010-12-14 07:58:28 51°13.695 2°55.748 97.5 3.2 280 -999
2010-12-14 07:58:34 51°13.696 2°55.742 97.4 2.2 279 -999
2010-12-14 07:58:38 51°13.696 2°55.74 95.9 1.4 281 -999
2010-12-14 07:58:43 51°13.696 2°55.738 92.4 0.7 287 14.7
2010-12-14 07:58:48 51°13.697 2°55.738 89.3 0.3 330 14.5
2010-12-14 07:58:53 51°13.697 2°55.738 85.7 0.3 44 14.6
2010-12-14 07:58:58 51°13.698 2°55.739 81.7 0.6 47 14.7
2010-12-14 07:59:03 51°13.698 2°55.74 76.3 0.8 58 14.8
2010-12-14 07:59:08 51°13.699 2°55.742 71.2 1.1 55 -999
2010-12-14 07:59:13 51°13.7 2°55.745 65.8 1.5 53 4.9
2010-12-14 07:59:18 51°13.702 2°55.748 59.6 1.6 52 -999
2010-12-14 07:59:23 51°13.703 2°55.75 53.6 1.5 43 -999
2010-12-14 07:59:28 51°13.705 2°55.752 47.3 1 43 14.8
2010-12-14 07:59:33 51°13.705 2°55.752 45.2 0.4 31 14.9
2010-12-14 07:59:38 51°13.705 2°55.752 41.9 0.1 234 14.9
2010-12-14 07:59:42 51°13.705 2°55.751 38.5 0.7 223 15
2010-12-14 07:59:48 51°13.703 2°55.75 35.1 1.2 215 14.9
2010-12-14 07:59:52 51°13.702 2°55.748 32.5 1.7 215 14.7
2010-12-14 07:59:58 51°13.699 2°55.745 30.3 2.2 211 14.3
2010-12-14 08:00:03 51°13.696 2°55.742 28.4 2.6 210 -999
2010-12-14 08:00:08 51°13.692 2°55.739 25.7 2.6 209 -999
2010-12-14 08:00:13 51°13.69 2°55.736 23.9 2.4 207 -999
2010-12-14 08:00:19 51°13.687 2°55.734 23.1 2 208 -999
2010-12-14 08:00:24 51°13.685 2°55.733 22.3 1.3 208 -999
2010-12-14 08:00:29 51°13.684 2°55.732 20 0.7 211 -999
2010-12-14 08:00:34 51°13.684 2°55.731 16.3 0.4 245 -999
2010-12-14 08:00:39 51°13.684 2°55.731 12.3 0.2 322 -999
2010-12-14 08:00:44 51°13.686 2°55.731 7.7 0.7 343 -999
2010-12-14 08:00:49 51°13.687 2°55.73 2.2 1.1 348 -999
2010-12-14 08:00:53 51°13.689 2°55.729 357.5 1.8 347 13.6
2010-12-14 08:00:59 51°13.694 2°55.727 352.1 2.6 343 -999
2010-12-14 08:01:04 51°13.698 2°55.725 345.9 3.4 341 -999
2010-12-14 08:01:09 51°13.704 2°55.721 341.3 4.1 338 -999
2010-12-14 08:01:14 51°13.71 2°55.717 339 4.8 337 5.1
2010-12-14 08:01:19 51°13.718 2°55.711 337.3 5.5 335 13.7
2010-12-14 08:01:23 51°13.724 2°55.707 336 6.1 336 12.7
2010-12-14 08:01:29 51°13.734 2°55.7 335.5 6.7 336 12.5
2010-12-14 08:01:33 51°13.741 2°55.694 335.6 7.2 335 12.6
2010-12-14 08:01:39 51°13.753 2°55.687 335.4 7.6 337 12.3
2010-12-14 08:01:43 51°13.761 2°55.681 335.7 8 336 11.8
2010-12-14 08:01:47 51°13.77 2°55.675 335.7 6.8 335 11.6
2010-12-14 08:01:53 51°13.783 2°55.665 335.5 7.6 336 11.6
2010-12-14 08:01:58 51°13.795 2°55.657 335.4 9 334 11.5
2010-12-14 08:02:03 51°13.806 2°55.649 335.1 9.1 336 11.5
2010-12-14 08:02:07 51°13.815 2°55.642 335.4 9.2 334 11.4
2010-12-14 08:02:12 51°13.827 2°55.633 334.3 9.3 333 11.4
2010-12-14 08:02:17 51°13.838 2°55.623 333.6 7.2 334 11.6
2010-12-14 08:02:22 51°13.849 2°55.615 334.3 9.2 335 11.4
2010-12-14 08:02:27 51°13.861 2°55.605 334.5 7.4 333 11.5
2010-12-14 08:02:29 51°13.866 2°55.602 334.5 3.1 336 11.3
2010-12-14 08:02:37 51°13.886 2°55.588 335.1 8.8 335 12.2
2010-12-14 08:02:41 51°13.896 2°55.581 335.3 10.2 336 12.3
2010-12-14 08:02:46 51°13.909 2°55.572 335.4 10 336 12.4
2010-12-14 08:02:51 51°13.921 2°55.563 336.5 9.9 337 12.4
2010-12-14 08:02:56 51°13.934 2°55.554 336.8 10 336 12.3
2010-12-14 08:03:01 51°13.947 2°55.545 336.5 10 336 12.3
2010-12-14 08:03:06 51°13.959 2°55.535 336.1 10 335 12.3
2010-12-14 08:03:11 51°13.972 2°55.526 336.1 10 336 12.3
2010-12-14 08:03:14 51°13.98 2°55.521 336.1 5.8 335 12.3
2010-12-14 08:03:20 51°13.993 2°55.51 335.5 7.8 335 12.4
2010-12-14 08:03:26 51°14.009 2°55.499 335.2 10.3 335 12.2
2010-12-14 08:03:30 51°14.02 2°55.493 335.4 10.1 336 -999
2010-12-14 08:03:35 51°14.032 2°55.484 335.7 10.1 336 12
2010-12-14 08:03:41 51°14.048 2°55.472 335.4 10.1 336 12.2
2010-12-14 08:03:46 51°14.061 2°55.463 336.4 10.2 336 -999
2010-12-14 08:03:51 51°14.074 2°55.453 336.5 10.2 336 -999
2010-12-14 08:03:56 51°14.088 2°55.444 336.5 10.3 336 12
2010-12-14 08:04:01 51°14.101 2°55.434 336.1 10.5 335 12.1
2010-12-14 08:04:06 51°14.114 2°55.424 336.2 10.5 336 -999
2010-12-14 08:04:11 51°14.128 2°55.414 336.1 10.7 335 -999
2010-12-14 08:04:17 51°14.144 2°55.402 335.5 10.7 335 -999
2010-12-14 08:04:23 51°14.16 2°55.389 335.5 10.8 334 11.9
2010-12-14 08:04:28 51°14.174 2°55.379 334.8 10.9 334 12.1
2010-12-14 08:04:33 51°14.187 2°55.368 334.4 10.9 332 -999
2010-12-14 08:04:39 51°14.203 2°55.354 333.7 11 332 -999
2010-12-14 08:04:43 51°14.214 2°55.344 333 11.2 330 -999
2010-12-14 08:04:49 51°14.23 2°55.328 330.5 11.3 328 -999
2010-12-14 08:04:54 51°14.243 2°55.315 328.9 11.4 327 -999
2010-12-14 08:04:59 51°14.256 2°55.301 328 11.4 327 -999
2010-12-14 08:05:04 51°14.27 2°55.286 326.9 11.6 326 -999
2010-12-14 08:05:09 51°14.283 2°55.272 326.7 11.7 327 -999
2010-12-14 08:05:14 51°14.297 2°55.258 327.2 11.7 326 -999
2010-12-14 08:05:19 51°14.311 2°55.244 327.3 11.8 327 -999
2010-12-14 08:05:24 51°14.325 2°55.229 327.6 11.9 327 12.1
2010-12-14 08:05:29 51°14.338 2°55.214 327.6 11.9 326 12
2010-12-14 08:05:33 51°14.349 2°55.202 327.4 11.9 325 11.8
2010-12-14 08:05:39 51°14.365 2°55.184 326.6 12 325 11.7
2010-12-14 08:05:43 51°14.377 2°55.172 326.4 12.1 326 11.8
2010-12-14 08:05:48 51°14.391 2°55.157 326.6 12.2 326 11.7
2010-12-14 08:05:53 51°14.405 2°55.142 327 12.3 326 12
2010-12-14 08:05:58 51°14.419 2°55.127 326.9 12.3 328 12.1
2010-12-14 08:06:03 51°14.433 2°55.113 328.1 12.3 327 12.2
2010-12-14 08:06:07 51°14.445 2°55.101 328.8 12.2 328 12.2
2010-12-14 08:06:12 51°14.459 2°55.086 329.4 12.3 327 12
2010-12-14 08:06:17 51°14.474 2°55.071 328.9 12.3 326 -999
2010-12-14 08:06:23 51°14.491 2°55.053 328.1 12.5 327 -999
2010-12-14 08:06:28 51°14.505 2°55.038 328 12.2 326 11.9
2010-12-14 08:06:33 51°14.519 2°55.023 328.3 12.2 326 12.8
2010-12-14 08:06:38 51°14.532 2°55.006 327.4 12.2 322 13.1
2010-12-14 08:06:43 51°14.546 2°54.99 326.7 12.1 323 12.6
2010-12-14 08:06:47 51°14.557 2°54.978 325.5 12.1 324 12.5
2010-12-14 08:06:52 51°14.57 2°54.963 326.2 12 325 13.2
2010-12-14 08:06:57 51°14.584 2°54.948 326.6 12 324 13.3
2010-12-14 08:07:02 51°14.597 2°54.931 326.3 12.1 322 12.6
2010-12-14 08:07:07 51°14.61 2°54.915 324.5 12 321 13.1
2010-12-14 08:07:11 51°14.62 2°54.901 323.5 12 321 13.9
2010-12-14 08:07:17 51°14.636 2°54.883 323 11.9 322 13.1
2010-12-14 08:07:21 51°14.646 2°54.87 323.8 11.8 323 12.4
2010-12-14 08:07:26 51°14.659 2°54.854 323.6 11.9 323 12.3
2010-12-14 08:07:31 51°14.673 2°54.839 324.3 12.1 325 12.6
2010-12-14 08:07:36 51°14.687 2°54.823 325.8 12.4 326 12.5
2010-12-14 08:07:41 51°14.702 2°54.808 326 12.2 324 12.6
2010-12-14 08:07:46 51°14.716 2°54.791 325.6 12.2 323 14
2010-12-14 08:07:51 51°14.73 2°54.774 324.1 12.4 322 13.9
2010-12-14 08:07:55 51°14.741 2°54.762 323.4 12.5 324 13
2010-12-14 08:08:00 51°14.755 2°54.745 323.8 12.6 323 12.6
2010-12-14 08:08:05 51°14.77 2°54.729 324.6 12.8 326 13.4
2010-12-14 08:08:10 51°14.785 2°54.715 328.1 12.7 330 12.6
2010-12-14 08:08:15 51°14.801 2°54.702 331.7 12.8 332 13.3
2010-12-14 08:08:20 51°14.817 2°54.689 332.8 12.8 332 12.4
2010-12-14 08:08:26 51°14.836 2°54.673 333 12.9 333 13
2010-12-14 08:08:30 51°14.849 2°54.663 333.4 12.9 335 13.3
2010-12-14 08:08:35 51°14.865 2°54.652 336.1 12.7 337 -999
2010-12-14 08:08:40 51°14.881 2°54.641 336.9 12.7 336 13.7
2010-12-14 08:08:45 51°14.897 2°54.629 335.4 12.7 335 13.1
2010-12-14 08:08:50 51°14.913 2°54.616 334.4 12.7 334 12.4
2010-12-14 08:08:55 51°14.928 2°54.605 334.4 12.6 335 12.8
2010-12-14 08:08:59 51°14.941 2°54.595 334 12.7 335 12.7
2010-12-14 08:09:05 51°14.961 2°54.582 335.6 12.8 339 11.4
2010-12-14 08:09:10 51°14.977 2°54.574 339 12.6 343 11.1
2010-12-14 08:09:15 51°14.994 2°54.567 342.6 12.6 345 11.1
2010-12-14 08:09:19 51°15.008 2°54.563 346.1 12.7 348 10.5
2010-12-14 08:09:25 51°15.029 2°54.556 347.5 12.5 348 10.6
2010-12-14 08:09:30 51°15.046 2°54.55 348.1 12.5 348 11.4
2010-12-14 08:09:35 51°15.063 2°54.544 347.3 12.5 346 10
2010-12-14 08:09:39 51°15.076 2°54.54 347.8 12.6 349 10
2010-12-14 08:09:45 51°15.097 2°54.532 348.3 12.5 346 9.7
2010-12-14 08:09:50 51°15.114 2°54.526 347.7 12.5 347 10.1
2010-12-14 08:09:55 51°15.131 2°54.519 346.6 12.5 345 10.2
2010-12-14 08:09:59 51°15.145 2°54.514 346.2 12.7 347 9.7
2010-12-14 08:10:05 51°15.165 2°54.505 345.7 12.8 344 9.6
2010-12-14 08:10:10 51°15.182 2°54.498 345.2 12.8 345 9.6
2010-12-14 08:10:15 51°15.199 2°54.49 344.5 12.6 344 10.7
2010-12-14 08:10:19 51°15.213 2°54.484 344.8 12.7 344 10.7
2010-12-14 08:10:25 51°15.233 2°54.474 343.4 12.7 342 10
2010-12-14 08:10:30 51°15.25 2°54.465 342.7 12.8 341 10.5
2010-12-14 08:10:35 51°15.267 2°54.456 341.6 12.8 341 10.5
2010-12-14 08:10:40 51°15.283 2°54.446 340.6 12.7 340 10
2010-12-14 08:10:45 51°15.299 2°54.436 340.3 12.7 340 11.1
2010-12-14 08:10:50 51°15.316 2°54.426 339.9 12.7 338 10.3
2010-12-14 08:10:55 51°15.332 2°54.416 339.4 12.6 339 10.4
2010-12-14 08:10:59 51°15.345 2°54.408 339 12.7 339 10.8
2010-12-14 08:11:05 51°15.365 2°54.395 339.5 12.9 339 10.7
2010-12-14 08:11:11 51°15.385 2°54.383 339.8 12.8 339 10.7
2010-12-14 08:11:15 51°15.398 2°54.375 339.8 12.7 339 11.3
2010-12-14 08:11:19 51°15.412 2°54.367 339.8 12.9 339 11.1
2010-12-14 08:11:25 51°15.432 2°54.355 340 12.9 340 10.6
2010-12-14 08:11:30 51°15.448 2°54.345 339.8 12.9 339 10.7
2010-12-14 08:11:35 51°15.465 2°54.335 339.8 13 339 11.1
2010-12-14 08:11:39 51°15.478 2°54.326 339.7 12.9 339 11.1
2010-12-14 08:11:45 51°15.498 2°54.314 339.8 13 340 11.4
2010-12-14 08:11:50 51°15.515 2°54.304 339.8 12.9 339 10.9
2010-12-14 08:11:55 51°15.532 2°54.294 339.8 12.9 339 11
2010-12-14 08:11:59 51°15.545 2°54.286 340 13 340 10.9
2010-12-14 08:12:05 51°15.565 2°54.273 339.8 12.8 339 11.6
2010-12-14 08:12:10 51°15.582 2°54.263 339.2 12.9 340 11.7
2010-12-14 08:12:15 51°15.598 2°54.253 339.7 12.9 339 11.8
2010-12-14 08:12:20 51°15.615 2°54.242 339.8 12.9 338 11.4
2010-12-14 08:12:25 51°15.631 2°54.23 337.6 12.9 334 11.1
2010-12-14 08:12:30 51°15.647 2°54.217 334.9 12.9 334 11.2
2010-12-14 08:12:35 51°15.663 2°54.203 333.9 13 333 11.7
2010-12-14 08:12:39 51°15.675 2°54.192 332.2 13.1 331 11.6
2010-12-14 08:12:45 51°15.695 2°54.176 331.8 12.8 331 11.2
2010-12-14 08:12:50 51°15.71 2°54.161 330.8 12.9 329 12.1
2010-12-14 08:12:55 51°15.725 2°54.146 330.4 12.9 330 11.7
2010-12-14 08:12:59 51°15.738 2°54.135 330.2 13 329 11.6
2010-12-14 08:13:05 51°15.756 2°54.117 329.6 13 329 12
2010-12-14 08:13:10 51°15.772 2°54.102 329.5 13 330 11.2
2010-12-14 08:13:15 51°15.786 2°54.087 329.3 12.2 327 -999
2010-12-14 08:13:21 51°15.803 2°54.07 328.9 12 327 -999
2010-12-14 08:13:27 51°15.821 2°54.052 328 12.5 328 -999
2010-12-14 08:13:31 51°15.832 2°54.041 329.1 12.4 329 12.7
2010-12-14 08:13:36 51°15.846 2°54.026 327.9 12.4 326 11.9
2010-12-14 08:13:41 51°15.861 2°54.012 327.7 12.6 330 12
2010-12-14 08:13:46 51°15.877 2°53.997 328.7 12.8 328 12.2
2010-12-14 08:13:51 51°15.892 2°53.982 328.7 13 329 11.8
2010-12-14 08:13:56 51°15.907 2°53.967 329.2 12.8 328 12
2010-12-14 08:14:00 51°15.919 2°53.955 328.9 12.8 328 12.9
2010-12-14 08:14:06 51°15.938 2°53.937 328.9 13 329 12.4
2010-12-14 08:14:10 51°15.95 2°53.925 328.9 12.9 328 11.7
2010-12-14 08:14:15 51°15.965 2°53.91 329.5 12.8 329 12.6
2010-12-14 08:14:19 51°15.977 2°53.899 329.2 12.9 328 12.8
2010-12-14 08:14:25 51°15.996 2°53.881 329.4 13 330 12.2
2010-12-14 08:14:30 51°16.011 2°53.866 330.1 12.9 329 12
2010-12-14 08:14:35 51°16.027 2°53.852 329.9 13.1 330 12.5
2010-12-14 08:14:39 51°16.04 2°53.84 330.1 12.9 330 11.8
2010-12-14 08:14:45 51°16.058 2°53.823 329.9 12.9 330 12.7
2010-12-14 08:14:50 51°16.073 2°53.808 330.4 13 329 12.4
2010-12-14 08:14:55 51°16.089 2°53.793 330.2 13 328 12.5
2010-12-14 08:14:59 51°16.101 2°53.781 330 13.1 329 12.2
2010-12-14 08:15:05 51°16.119 2°53.761 327.7 13.1 324 11.9
2010-12-14 08:15:10 51°16.134 2°53.746 327.2 12.7 328 12.6
2010-12-14 08:15:15 51°16.148 2°53.729 326.4 12.6 324 13.3
2010-12-14 08:15:19 51°16.16 2°53.717 326.1 12.7 327 12.9
2010-12-14 08:15:25 51°16.177 2°53.697 325.3 12.6 324 12.2
2010-12-14 08:15:30 51°16.191 2°53.682 325 12.6 325 13.3
2010-12-14 08:15:35 51°16.205 2°53.665 325.6 12.6 323 12.8
2010-12-14 08:15:39 51°16.216 2°53.652 323.8 12.6 324 11.9
2010-12-14 08:15:45 51°16.233 2°53.632 323.3 12.4 324 12.5
2010-12-14 08:15:50 51°16.247 2°53.616 323.9 12.6 324 13.6
2010-12-14 08:15:55 51°16.262 2°53.6 323.8 12.5 324 13
2010-12-14 08:16:00 51°16.276 2°53.583 324.4 12.7 325 13
2010-12-14 08:16:05 51°16.29 2°53.567 324.3 12.6 324 12.7
2010-12-14 08:16:11 51°16.307 2°53.547 323.5 12.9 324 13.1
2010-12-14 08:16:15 51°16.318 2°53.534 324 12.8 325 13.3
2010-12-14 08:16:19 51°16.33 2°53.52 324.5 13 322 13.6
2010-12-14 08:16:25 51°16.347 2°53.5 324.7 13 325 12.7
2010-12-14 08:16:30 51°16.362 2°53.482 323.9 13 322 12.5
2010-12-14 08:16:35 51°16.376 2°53.466 323.2 12.8 324 12.9
2010-12-14 08:16:39 51°16.387 2°53.452 323.5 12.8 323 13.1
2010-12-14 08:16:45 51°16.404 2°53.432 323.1 13 324 13.6
2010-12-14 08:16:50 51°16.419 2°53.415 323.9 12.9 324 12.9
2010-12-14 08:16:55 51°16.434 2°53.399 324.2 13 325 13.6
2010-12-14 08:16:59 51°16.446 2°53.385 324 13 324 13.2
2010-12-14 08:17:05 51°16.463 2°53.365 324.1 13.2 325 13.3
2010-12-14 08:17:10 51°16.478 2°53.348 324.1 13 324 12.6
2010-12-14 08:17:15 51°16.493 2°53.332 324.6 13 326 13
2010-12-14 08:17:19 51°16.505 2°53.319 325 13.1 326 12.9
2010-12-14 08:17:25 51°16.523 2°53.299 325 13.2 325 13.2
2010-12-14 08:17:30 51°16.538 2°53.283 325.4 13.2 325 13.1
2010-12-14 08:17:35 51°16.553 2°53.266 325.2 13.1 325 12.9
2010-12-14 08:17:40 51°16.568 2°53.25 325.6 13 326 13.9
2010-12-14 08:17:45 51°16.583 2°53.234 325.7 13 325 12.5
2010-12-14 08:17:50 51°16.598 2°53.219 325 12.8 327 12.9
2010-12-14 08:17:55 51°16.612 2°53.202 325.5 12.8 325 13.1
2010-12-14 08:17:59 51°16.624 2°53.19 325.6 12.8 327 13.1
2010-12-14 08:18:05 51°16.642 2°53.17 325.3 13 324 13.1
2010-12-14 08:18:11 51°16.66 2°53.152 325.2 12.5 328 12.3
2010-12-14 08:18:15 51°16.671 2°53.138 325.2 12.7 324 13.3
2010-12-14 08:18:19 51°16.683 2°53.125 324.7 12.8 327 12.9
2010-12-14 08:18:25 51°16.7 2°53.106 324.5 12.9 325 13.2
2010-12-14 08:18:30 51°16.716 2°53.09 325.9 13 327 12.9
2010-12-14 08:18:35 51°16.73 2°53.073 324.7 12.9 323 11.9
2010-12-14 08:18:40 51°16.745 2°53.058 325 12.7 326 11.4
2010-12-14 08:18:45 51°16.758 2°53.04 322.8 12.6 322 12.4
2010-12-14 08:18:50 51°16.773 2°53.025 323.2 12.6 326 12.8
2010-12-14 08:18:55 51°16.786 2°53.008 323.8 12.5 323 12.3
2010-12-14 08:18:59 51°16.798 2°52.995 323.2 12.6 326 11.7
2010-12-14 08:19:05 51°16.816 2°52.977 325.2 12.7 326 11.1
2010-12-14 08:19:10 51°16.83 2°52.96 323.7 12.7 323 10.8
2010-12-14 08:19:15 51°16.844 2°52.945 324.7 12.4 326 -999
2010-12-14 08:19:20 51°16.857 2°52.928 322.4 12 322 10.7
2010-12-14 08:19:25 51°16.871 2°52.913 323.8 12.3 326 10.5
2010-12-14 08:19:30 51°16.885 2°52.897 324.1 12.4 325 10.2
2010-12-14 08:19:35 51°16.899 2°52.882 324.6 12.5 327 10
2010-12-14 08:19:40 51°16.914 2°52.866 325.1 12.6 325 10.4
2010-12-14 08:19:45 51°16.928 2°52.851 325.3 12.6 327 10.2
2010-12-14 08:19:50 51°16.943 2°52.835 325.6 12.7 325 11
2010-12-14 08:19:55 51°16.957 2°52.82 326 12.8 326 10.6
2010-12-14 08:19:59 51°16.969 2°52.806 325.1 12.8 325 11.1
2010-12-14 08:20:05 51°16.987 2°52.788 325.4 12.8 327 11.2
2010-12-14 08:20:11 51°17.005 2°52.769 326.2 12.7 327 11
2010-12-14 08:20:15 51°17.017 2°52.757 326.7 12.8 327 11
2010-12-14 08:20:19 51°17.029 2°52.746 328.1 12.9 329 11
2010-12-14 08:20:25 51°17.047 2°52.728 328.3 12.8 329 10.8
2010-12-14 08:20:30 51°17.062 2°52.715 329.5 12.5 330 10.9
2010-12-14 08:20:35 51°17.077 2°52.701 329.1 12.5 329 11.8
2010-12-14 08:20:39 51°17.09 2°52.69 329.9 12.6 331 11.8
2010-12-14 08:20:45 51°17.108 2°52.675 332.1 12.7 334 10.8
2010-12-14 08:20:50 51°17.124 2°52.663 333.8 12.2 335 10
2010-12-14 08:20:55 51°17.139 2°52.654 336.2 12.3 339 11.1
2010-12-14 08:21:00 51°17.156 2°52.646 339.4 12.5 343 10.7
2010-12-14 08:21:05 51°17.172 2°52.638 342.8 12.3 344 10.5
2010-12-14 08:21:10 51°17.189 2°52.632 344.7 12.5 347 11.1
2010-12-14 08:21:15 51°17.206 2°52.626 346.7 12.6 347 10.7
2010-12-14 08:21:20 51°17.224 2°52.621 348 12.6 350 10.7
2010-12-14 08:21:25 51°17.241 2°52.616 349.7 12.4 349 11.6
2010-12-14 08:21:30 51°17.258 2°52.611 350.3 12.5 351 11.6
2010-12-14 08:21:35 51°17.276 2°52.607 351.6 12.6 352 10.7
2010-12-14 08:21:39 51°17.29 2°52.604 352.4 12.6 352 11.5
2010-12-14 08:21:45 51°17.31 2°52.6 352.9 12.7 353 11.5
2010-12-14 08:21:50 51°17.328 2°52.597 353.5 12.7 353 11.3
2010-12-14 08:21:55 51°17.345 2°52.594 353.6 12.7 353 11.5
2010-12-14 08:21:59 51°17.359 2°52.591 353.8 12.8 353 11.7
2010-12-14 08:22:05 51°17.381 2°52.587 353.7 12.9 354 11.3
2010-12-14 08:22:10 51°17.398 2°52.584 353.6 12.9 352 11.3
2010-12-14 08:22:15 51°17.416 2°52.58 353.7 12.7 353 11.8
2010-12-14 08:22:20 51°17.433 2°52.576 353 12.8 352 12
2010-12-14 08:22:25 51°17.451 2°52.573 353.4 12.8 354 11.5
2010-12-14 08:22:31 51°17.472 2°52.568 353.8 12.6 352 11.1
2010-12-14 08:22:35 51°17.486 2°52.566 353.1 12.8 353 11.2
2010-12-14 08:22:39 51°17.5 2°52.563 352.8 12.7 352 11.9
2010-12-14 08:22:45 51°17.522 2°52.559 353.6 12.7 355 11.3
2010-12-14 08:22:51 51°17.542 2°52.557 356.4 12.6 356 12.2
2010-12-14 08:22:55 51°17.556 2°52.557 357.2 12.6 358 11.6
2010-12-14 08:22:59 51°17.57 2°52.557 358.6 12.7 359 11.1
2010-12-14 08:23:05 51°17.59 2°52.557 359.7 12.3 359 12.2
2010-12-14 08:23:10 51°17.608 2°52.556 0.5 12.4 -999 12.6
2010-12-14 08:23:15 51°17.625 2°52.557 1 12.4 1 11.5
2010-12-14 08:23:19 51°17.639 2°52.558 2 12.6 1 11.2
2010-12-14 08:23:25 51°17.66 2°52.558 2.2 12.6 2 10.9
2010-12-14 08:23:30 51°17.677 2°52.56 2.6 12.3 3 11.2
2010-12-14 08:23:35 51°17.694 2°52.561 3 12.4 3 12
2010-12-14 08:23:39 51°17.708 2°52.562 3.3 12.5 3 12.1
2010-12-14 08:23:45 51°17.729 2°52.563 3.4 12.6 2 12.2
2010-12-14 08:23:50 51°17.746 2°52.565 3.1 12.3 3 11.3
2010-12-14 08:23:55 51°17.763 2°52.566 2.8 12.2 3 12.3
2010-12-14 08:23:59 51°17.776 2°52.567 3.4 12.3 3 11.7
2010-12-14 08:24:05 51°17.797 2°52.569 3.3 12 3 11
2010-12-14 08:24:10 51°17.813 2°52.57 3.1 12 2 11.2
2010-12-14 08:24:15 51°17.83 2°52.572 3.2 12 3 12.5
2010-12-14 08:24:20 51°17.847 2°52.572 2.5 12 1 12.8
2010-12-14 08:24:25 51°17.864 2°52.574 2.3 12.1 2 11.3
2010-12-14 08:24:30 51°17.881 2°52.574 2.1 12.3 -999 11.9
2010-12-14 08:24:35 51°17.898 2°52.575 1.9 12.5 3 11.7
2010-12-14 08:24:40 51°17.915 2°52.575 2.1 12.5 -999 11.4
2010-12-14 08:24:45 51°17.933 2°52.576 1.6 12.5 2 11.7
2010-12-14 08:24:50 51°17.95 2°52.576 2.2 12.7 -999 12
2010-12-14 08:24:55 51°17.968 2°52.577 1.8 12.7 1 11.4
2010-12-14 08:25:00 51°17.985 2°52.577 1.6 12.7 1 12.1
2010-12-14 08:25:05 51°18.003 2°52.577 1.5 12.7 -999 12.1
2010-12-14 08:25:10 51°18.021 2°52.578 1.5 12.8 -999 12.3
2010-12-14 08:25:15 51°18.038 2°52.577 1.1 12.8 359 11.8
2010-12-14 08:25:20 51°18.056 2°52.578 1.4 12.9 1 12.1
2010-12-14 08:25:25 51°18.074 2°52.578 1.3 12.7 -999 11.8
2010-12-14 08:25:30 51°18.091 2°52.578 1.5 12.7 1 12.3
2010-12-14 08:25:35 51°18.109 2°52.578 1.5 12.7 -999 12.4
2010-12-14 08:25:39 51°18.123 2°52.579 1.5 12.8 1 11.6
2010-12-14 08:25:45 51°18.144 2°52.578 1.1 12.6 359 11.7
2010-12-14 08:25:50 51°18.162 2°52.579 1.4 12.7 1 12.7
2010-12-14 08:25:55 51°18.179 2°52.579 1.3 12.7 359 11.3
2010-12-14 08:25:59 51°18.193 2°52.58 0.9 12.3 2 12.3
2010-12-14 08:26:05 51°18.213 2°52.579 1.4 12.5 359 12.5
2010-12-14 08:26:10 51°18.231 2°52.579 0.9 12.6 -999 12.5
2010-12-14 08:26:15 51°18.248 2°52.579 0.8 12.6 359 12.1
2010-12-14 08:26:19 51°18.263 2°52.579 0.6 12.7 -999 11.9
2010-12-14 08:26:25 51°18.284 2°52.578 0.8 12.9 359 12.3
2010-12-14 08:26:30 51°18.302 2°52.578 0.8 12.8 359 12
2010-12-14 08:26:35 51°18.32 2°52.578 0.8 12.9 359 12.2
2010-12-14 08:26:39 51°18.334 2°52.578 0.7 13 -999 12.7
2010-12-14 08:26:45 51°18.356 2°52.578 1.1 13 -999 12.4
2010-12-14 08:26:50 51°18.373 2°52.577 0.8 13 359 12.6
2010-12-14 08:26:55 51°18.392 2°52.577 0.5 12.9 -999 12.7
2010-12-14 08:26:59 51°18.406 2°52.577 0.5 12.9 359 12.3
2010-12-14 08:27:05 51°18.427 2°52.576 0.6 12.9 -999 12.7
2010-12-14 08:27:11 51°18.449 2°52.577 1.2 12.9 1 13.6
2010-12-14 08:27:15 51°18.463 2°52.577 1.5 12.7 1 12.3
2010-12-14 08:27:19 51°18.477 2°52.577 1.6 12.7 -999 12.1
2010-12-14 08:27:25 51°18.498 2°52.577 0.9 12.4 -999 13
2010-12-14 08:27:30 51°18.515 2°52.577 0.8 12.5 -999 13.1
2010-12-14 08:27:35 51°18.533 2°52.577 1 12.5 -999 12.3
2010-12-14 08:27:39 51°18.547 2°52.576 0.9 12.7 359 12.7
2010-12-14 08:27:45 51°18.567 2°52.576 0.4 12.5 359 13.3
2010-12-14 08:27:50 51°18.585 2°52.575 0.2 12.4 359 14.5
2010-12-14 08:27:55 51°18.601 2°52.575 -999 12.2 -999 12.9
2010-12-14 08:28:00 51°18.618 2°52.574 0.4 12.3 359 12.5
2010-12-14 08:28:05 51°18.635 2°52.574 0.3 12.3 359 13
2010-12-14 08:28:10 51°18.653 2°52.574 0.8 12.4 359 13.1
2010-12-14 08:28:15 51°18.67 2°52.573 0.4 12.5 358 12.8
2010-12-14 08:28:20 51°18.687 2°52.572 359.9 12.6 359 12.8
2010-12-14 08:28:26 51°18.708 2°52.571 0.1 12.7 358 13.1
2010-12-14 08:28:30 51°18.722 2°52.571 0.3 12.7 359 13.2
2010-12-14 08:28:35 51°18.74 2°52.57 0.6 12.7 359 13.7
2010-12-14 08:28:40 51°18.758 2°52.571 0.7 13 -999 13.1
2010-12-14 08:28:45 51°18.775 2°52.57 1.1 12.5 359 12.3
2010-12-14 08:28:50 51°18.792 2°52.571 1.4 12.3 -999 13.1
2010-12-14 08:28:55 51°18.809 2°52.57 1.2 12.3 359 14
2010-12-14 08:29:00 51°18.827 2°52.569 0.5 12.4 359 14
2010-12-14 08:29:05 51°18.844 2°52.569 0.1 12.6 359 13.1
2010-12-14 08:29:10 51°18.861 2°52.568 0.1 12.6 359 13.5
2010-12-14 08:29:15 51°18.879 2°52.568 0.3 12.8 359 13.7
2010-12-14 08:29:20 51°18.897 2°52.567 0.5 12.8 359 13.6
2010-12-14 08:29:25 51°18.914 2°52.566 0.3 12.7 359 13.8
2010-12-14 08:29:30 51°18.932 2°52.566 0.8 12.8 358 14.1
2010-12-14 08:29:35 51°18.95 2°52.565 0.1 12.8 358 14.1
2010-12-14 08:29:39 51°18.964 2°52.564 0.2 12.8 359 14.2
2010-12-14 08:29:45 51°18.986 2°52.563 0.1 12.9 358 13.9
2010-12-14 08:29:50 51°19.003 2°52.563 0.3 12.8 359 13.7
2010-12-14 08:29:55 51°19.021 2°52.562 0.6 12.9 359 14.2
2010-12-14 08:29:59 51°19.035 2°52.562 0.4 12.8 358 14.6
2010-12-14 08:30:05 51°19.056 2°52.561 -999 12.6 359 13.9
2010-12-14 08:30:10 51°19.074 2°52.56 0.7 12.5 358 15
2010-12-14 08:30:15 51°19.091 2°52.559 359.9 12.5 357 14.7
2010-12-14 08:30:19 51°19.105 2°52.558 -999 12.7 358 15
2010-12-14 08:30:25 51°19.126 2°52.557 0.1 12.8 358 14.7
2010-12-14 08:30:30 51°19.144 2°52.556 359.9 12.6 357 14.3
2010-12-14 08:30:35 51°19.161 2°52.555 359.7 12.6 358 15.2
2010-12-14 08:30:39 51°19.176 2°52.554 359.6 12.8 359 15
2010-12-14 08:30:45 51°19.197 2°52.554 0.1 12.9 359 15.4
2010-12-14 08:30:50 51°19.215 2°52.553 0.2 12.9 359 15.3
2010-12-14 08:30:55 51°19.233 2°52.553 0.6 12.9 359 15.4
2010-12-14 08:30:59 51°19.247 2°52.552 0.4 13.1 358 14.7
2010-12-14 08:31:05 51°19.268 2°52.552 0.9 12.4 -999 15.1
2010-12-14 08:31:10 51°19.285 2°52.552 0.7 12.5 -999 16.2
2010-12-14 08:31:15 51°19.303 2°52.552 1 12.5 359 15.6
2010-12-14 08:31:19 51°19.317 2°52.551 0.8 12.5 359 15.9
2010-12-14 08:31:25 51°19.338 2°52.55 0.2 12.7 358 15.8
2010-12-14 08:31:31 51°19.359 2°52.549 0.2 12.8 359 15.6
2010-12-14 08:31:35 51°19.373 2°52.549 -999 12.8 359 16
2010-12-14 08:31:39 51°19.388 2°52.548 0.4 12.8 359 16.3
2010-12-14 08:31:45 51°19.409 2°52.548 0.3 12.9 359 16.2
2010-12-14 08:31:50 51°19.427 2°52.547 0.8 13.1 359 16.3
2010-12-14 08:31:55 51°19.446 2°52.546 0.4 13 358 16.1
2010-12-14 08:31:59 51°19.46 2°52.546 0.1 12.9 358 15.9
2010-12-14 08:32:05 51°19.481 2°52.545 -999 12.6 358 17.3
2010-12-14 08:32:11 51°19.502 2°52.543 0.1 12.7 358 -999
2010-12-14 08:32:15 51°19.516 2°52.542 0.1 12.4 358 16.9
2010-12-14 08:32:20 51°19.533 2°52.542 359.8 12.4 358 16.6
2010-12-14 08:32:25 51°19.55 2°52.541 -999 12.3 359 16.4
2010-12-14 08:32:30 51°19.568 2°52.541 0.3 12.5 359 16.9
2010-12-14 08:32:35 51°19.585 2°52.54 0.7 12.6 -999 16.5
2010-12-14 08:32:40 51°19.603 2°52.539 0.6 12.5 358 15.8
2010-12-14 08:32:45 51°19.619 2°52.539 0.4 12.1 358 17.3
2010-12-14 08:32:50 51°19.637 2°52.537 0.1 12.3 357 17.2
2010-12-14 08:32:55 51°19.653 2°52.536 359.9 12.3 358 16.6
2010-12-14 08:32:59 51°19.667 2°52.535 359.9 12.3 358 17.2
2010-12-14 08:33:05 51°19.688 2°52.535 0.4 12.6 359 17.3
2010-12-14 08:33:10 51°19.706 2°52.534 0.4 12.6 359 17
2010-12-14 08:33:15 51°19.723 2°52.533 0.2 12.6 358 17.5
2010-12-14 08:33:19 51°19.737 2°52.533 0.3 12.5 359 16.3
2010-12-14 08:33:25 51°19.758 2°52.532 0.2 12.3 359 17.5
2010-12-14 08:33:31 51°19.779 2°52.531 0.6 12.5 359 17.6
2010-12-14 08:33:35 51°19.792 2°52.53 -999 12.6 358 16.7
2010-12-14 08:33:39 51°19.806 2°52.53 0.1 12.3 359 17.6
2010-12-14 08:33:46 51°19.83 2°52.529 0.1 12.2 358 19.1
2010-12-14 08:33:51 51°19.847 2°52.529 359.9 12.1 359 18.8
2010-12-14 08:33:55 51°19.86 2°52.528 0.5 11.9 359 17.1
2010-12-14 08:34:00 51°19.876 2°52.528 0.4 11.9 359 17.7
2010-12-14 08:34:05 51°19.893 2°52.527 0.3 12.2 359 17.3
2010-12-14 08:34:10 51°19.91 2°52.527 0.4 12.3 359 17.1
2010-12-14 08:34:15 51°19.927 2°52.526 0.7 12.6 359 17.8
2010-12-14 08:34:20 51°19.945 2°52.525 0.3 12.7 358 17.6
2010-12-14 08:34:25 51°19.963 2°52.524 0.1 12.8 357 17.3
2010-12-14 08:34:30 51°19.98 2°52.522 359.5 12.5 357 16.8
2010-12-14 08:34:35 51°19.998 2°52.521 359.7 12.7 358 17.2
2010-12-14 08:34:39 51°20.012 2°52.521 0.5 12.5 358 17.7
2010-12-14 08:34:45 51°20.032 2°52.519 359.7 12.6 357 18.4
2010-12-14 08:34:50 51°20.05 2°52.518 359.8 12.7 359 17.8
2010-12-14 08:34:55 51°20.068 2°52.518 0.2 12.7 359 17.2
2010-12-14 08:34:59 51°20.082 2°52.517 0.5 12.8 358 16.9
2010-12-14 08:35:05 51°20.103 2°52.516 0.5 12.6 359 17.1
2010-12-14 08:35:10 51°20.12 2°52.516 0.2 12.7 359 17.4
2010-12-14 08:35:15 51°20.138 2°52.515 0.4 12.7 359 18.1
2010-12-14 08:35:20 51°20.156 2°52.514 0.7 12.9 358 17.3
2010-12-14 08:35:25 51°20.174 2°52.513 0.4 12.8 358 16.8
2010-12-14 08:35:30 51°20.191 2°52.512 -999 12.6 358 17.6
2010-12-14 08:35:35 51°20.209 2°52.512 0.6 12.7 359 18.2
2010-12-14 08:35:39 51°20.223 2°52.51 -999 12.8 358 17.1
2010-12-14 08:35:45 51°20.244 2°52.51 0.1 12.6 359 17.1
2010-12-14 08:35:51 51°20.266 2°52.509 0.3 12.8 358 17.3
2010-12-14 08:35:55 51°20.28 2°52.508 0.6 12.9 359 16.9
2010-12-14 08:35:59 51°20.294 2°52.508 0.8 12.7 359 16.8
2010-12-14 08:36:05 51°20.315 2°52.507 0.4 12.5 358 18.1
2010-12-14 08:36:10 51°20.333 2°52.506 0.1 12.5 359 17.7
2010-12-14 08:36:15 51°20.35 2°52.505 0.5 12.4 358 18
2010-12-14 08:36:19 51°20.364 2°52.504 0.1 12.2 357 16.3
2010-12-14 08:36:25 51°20.384 2°52.503 359.9 12.1 358 16.9
2010-12-14 08:36:31 51°20.405 2°52.502 0.2 12.3 359 17.5
2010-12-14 08:36:35 51°20.419 2°52.502 0.6 12.5 359 16.9
2010-12-14 08:36:40 51°20.436 2°52.5 0.4 12.7 358 17.2
2010-12-14 08:36:45 51°20.454 2°52.499 359.8 12.7 358 17.3
2010-12-14 08:36:50 51°20.472 2°52.498 -999 12.9 358 17.7
2010-12-14 08:36:55 51°20.489 2°52.497 359.9 12.8 358 16.8
2010-12-14 08:37:00 51°20.507 2°52.496 359.9 12.7 358 17
2010-12-14 08:37:05 51°20.525 2°52.495 0.3 12.9 358 17.7
2010-12-14 08:37:10 51°20.543 2°52.494 359.9 12.9 358 17.4
2010-12-14 08:37:15 51°20.559 2°52.493 0.2 12.3 358 15.8
2010-12-14 08:37:20 51°20.576 2°52.492 359.9 11.9 359 15
2010-12-14 08:37:25 51°20.593 2°52.491 0.3 12.1 358 16.2
2010-12-14 08:37:30 51°20.61 2°52.49 0.2 12.4 358 16.2
2010-12-14 08:37:35 51°20.627 2°52.489 0.1 12.6 358 15.3
2010-12-14 08:37:39 51°20.641 2°52.488 359.8 12.2 357 16
2010-12-14 08:37:45 51°20.661 2°52.487 0.1 12.4 358 16.2
2010-12-14 08:37:50 51°20.679 2°52.485 359.7 12.6 357 16.1
2010-12-14 08:37:55 51°20.697 2°52.485 0.1 12.6 359 16
2010-12-14 08:37:59 51°20.711 2°52.484 0.7 12.9 358 15.6
2010-12-14 08:38:05 51°20.732 2°52.483 0.1 12.9 358 15.5
2010-12-14 08:38:11 51°20.754 2°52.482 0.3 12.9 359 15.4
2010-12-14 08:38:15 51°20.768 2°52.482 0.7 12.7 358 16
2010-12-14 08:38:19 51°20.782 2°52.481 0.6 12.9 359 16.1
2010-12-14 08:38:25 51°20.804 2°52.481 0.8 12.7 359 15
2010-12-14 08:38:30 51°20.822 2°52.48 1.1 12.7 358 15.6
2010-12-14 08:38:35 51°20.839 2°52.479 0.7 12.8 357 15.4
2010-12-14 08:38:40 51°20.857 2°52.478 1 12.9 358 15.9
2010-12-14 08:38:45 51°20.875 2°52.477 -999 12.9 358 15.6
2010-12-14 08:38:51 51°20.896 2°52.476 0.5 12.9 359 15.8
2010-12-14 08:38:55 51°20.911 2°52.476 0.2 12.9 357 16.4
2010-12-14 08:38:59 51°20.925 2°52.475 0.4 12.9 358 16.2
2010-12-14 08:39:05 51°20.947 2°52.474 0.2 13 358 16.8
2010-12-14 08:39:10 51°20.965 2°52.473 0.4 13 358 16.2
2010-12-14 08:39:15 51°20.982 2°52.472 0.8 12.6 358 16.4
2010-12-14 08:39:19 51°20.997 2°52.471 0.1 12.9 358 16.9
2010-12-14 08:39:25 51°21.018 2°52.471 0.6 12.8 359 16
2010-12-14 08:39:30 51°21.036 2°52.47 0.6 12.6 358 16.2
2010-12-14 08:39:35 51°21.053 2°52.47 0.7 12.8 -999 16.5
2010-12-14 08:39:39 51°21.068 2°52.469 0.6 12.8 358 17.3
2010-12-14 08:39:45 51°21.089 2°52.468 0.5 12.9 359 17.1
2010-12-14 08:39:50 51°21.107 2°52.467 0.2 12.9 358 17
2010-12-14 08:39:55 51°21.125 2°52.466 0.7 12.9 359 17.6
2010-12-14 08:39:59 51°21.14 2°52.465 0.2 13 357 17.6
2010-12-14 08:40:05 51°21.161 2°52.464 0.1 13 358 17.7
2010-12-14 08:40:10 51°21.179 2°52.462 0.1 13 357 16.8
2010-12-14 08:40:15 51°21.197 2°52.462 359.7 12.8 358 17.7
2010-12-14 08:40:20 51°21.214 2°52.461 0.8 12.6 359 18.7
2010-12-14 08:40:25 51°21.232 2°52.459 0.1 12.7 357 19
2010-12-14 08:40:30 51°21.249 2°52.459 0.1 12.6 359 18.4
2010-12-14 08:40:35 51°21.266 2°52.458 0.7 12.6 358 17.6
2010-12-14 08:40:40 51°21.284 2°52.457 0.4 12.7 358 17.7
2010-12-14 08:40:45 51°21.301 2°52.457 0.5 12.4 359 18
2010-12-14 08:40:51 51°21.323 2°52.456 0.5 12.6 358 18.9
2010-12-14 08:40:55 51°21.337 2°52.456 0.7 12.7 359 18.8
2010-12-14 08:41:00 51°21.355 2°52.455 0.4 12.8 358 18.9
2010-12-14 08:41:05 51°21.373 2°52.454 0.5 13 359 18.9
2010-12-14 08:41:10 51°21.391 2°52.453 0.6 13 359 19.2
2010-12-14 08:41:15 51°21.409 2°52.452 0.6 13 359 18.7
2010-12-14 08:41:20 51°21.426 2°52.451 0.7 13 358 19.2
2010-12-14 08:41:25 51°21.444 2°52.45 359.8 13 357 19.8
2010-12-14 08:41:30 51°21.463 2°52.449 0.4 13 359 19.6
2010-12-14 08:41:35 51°21.48 2°52.448 0.2 13 358 19.5
2010-12-14 08:41:40 51°21.499 2°52.448 0.5 13 358 20.4
2010-12-14 08:41:45 51°21.517 2°52.447 0.4 12.9 358 19.6
2010-12-14 08:41:50 51°21.534 2°52.446 0.6 12.7 358 20.3
2010-12-14 08:41:55 51°21.552 2°52.445 0.1 12.6 358 21.2
2010-12-14 08:42:00 51°21.569 2°52.444 0.3 12.6 359 20.5
2010-12-14 08:42:05 51°21.586 2°52.443 -999 12.3 357 20.4
2010-12-14 08:42:10 51°21.603 2°52.442 359.5 12.4 358 21.2
2010-12-14 08:42:15 51°21.621 2°52.441 359.5 12.5 358 21.7
2010-12-14 08:42:20 51°21.639 2°52.44 -999 12.7 358 21.6
2010-12-14 08:42:26 51°21.66 2°52.439 0.1 12.8 359 22.1
2010-12-14 08:42:30 51°21.674 2°52.438 0.1 12.9 358 22.2
2010-12-14 08:42:35 51°21.692 2°52.438 0.4 12.9 359 22.1
2010-12-14 08:42:40 51°21.71 2°52.437 0.9 13.1 359 22
2010-12-14 08:42:45 51°21.728 2°52.436 0.6 12.7 358 22.1
2010-12-14 08:42:50 51°21.746 2°52.435 0.1 12.8 358 23
2010-12-14 08:42:55 51°21.763 2°52.434 0.1 12.9 358 23
2010-12-14 08:42:59 51°21.778 2°52.434 0.6 12.8 -999 23.6
2010-12-14 08:43:05 51°21.799 2°52.433 0.2 13 357 24
2010-12-14 08:43:11 51°21.821 2°52.432 0.4 12.9 359 23.8
2010-12-14 08:43:15 51°21.835 2°52.431 359.8 12.8 358 24.6
2010-12-14 08:43:19 51°21.849 2°52.43 0.2 12.9 359 24.3
2010-12-14 08:43:25 51°21.871 2°52.429 0.2 12.9 358 24.8
2010-12-14 08:43:30 51°21.889 2°52.429 0.4 13 359 24.9
2010-12-14 08:43:35 51°21.907 2°52.428 0.6 13 359 25.1
2010-12-14 08:43:39 51°21.921 2°52.428 0.8 12.9 -999 25.8
2010-12-14 08:43:45 51°21.942 2°52.428 0.8 12.8 -999 25.2
2010-12-14 08:43:50 51°21.96 2°52.428 0.8 13 359 25.6
2010-12-14 08:43:55 51°21.978 2°52.427 1 12.9 359 24.6
2010-12-14 08:43:59 51°21.992 2°52.426 0.1 12.9 358 24.6
2010-12-14 08:44:05 51°22.013 2°52.425 359.9 12.7 -999 24.9
2010-12-14 08:44:10 51°22.031 2°52.424 0.2 12.7 358 25.3
2010-12-14 08:44:15 51°22.048 2°52.424 0.3 12.9 359 24.9
2010-12-14 08:44:20 51°22.066 2°52.423 0.3 12.6 358 26
2010-12-14 08:44:25 51°22.084 2°52.422 -999 12.7 357 26.1
2010-12-14 08:44:30 51°22.101 2°52.422 359.8 12.7 359 25.2
2010-12-14 08:44:35 51°22.119 2°52.42 359.9 12.6 358 25.5
2010-12-14 08:44:39 51°22.133 2°52.42 -999 13 359 25.8
2010-12-14 08:44:45 51°22.155 2°52.419 0.2 12.9 359 24.5
2010-12-14 08:44:51 51°22.175 2°52.418 0.1 12.5 359 24.6
2010-12-14 08:44:55 51°22.189 2°52.418 0.1 12.6 359 25.6
2010-12-14 08:44:59 51°22.203 2°52.418 0.4 12.8 359 25.6
2010-12-14 08:45:05 51°22.224 2°52.417 0.8 12.8 359 25.5
2010-12-14 08:45:10 51°22.242 2°52.417 0.3 12.8 359 24.9
2010-12-14 08:45:15 51°22.26 2°52.416 0.5 12.9 -999 25.2
2010-12-14 08:45:19 51°22.275 2°52.416 0.7 12.9 358 25
2010-12-14 08:45:25 51°22.296 2°52.415 0.1 13.1 359 25
2010-12-14 08:45:30 51°22.315 2°52.414 0.1 13.2 359 24.9
2010-12-14 08:45:35 51°22.333 2°52.414 0.1 13.2 359 24.2
2010-12-14 08:45:39 51°22.347 2°52.413 0.8 13.1 -999 23.9
2010-12-14 08:45:45 51°22.368 2°52.412 0.5 12.7 357 24.6